createdAt,value
2018-12-27T00:01:37.295Z,101130.50
2018-12-27T00:04:18.057Z,101140.27
2018-12-27T00:06:58.643Z,101130.88
2018-12-27T00:09:38.962Z,101145.63
2018-12-27T00:12:20.203Z,101145.11
2018-12-27T00:15:01.250Z,101162.09
2018-12-27T00:17:42.094Z,101151.46
2018-12-27T00:20:23.048Z,101169.91
2018-12-27T00:23:03.747Z,101158.77
2018-12-27T00:25:44.499Z,101169.36
2018-12-27T00:28:25.293Z,101173.89
2018-12-27T00:31:06.040Z,101173.89
2018-12-27T00:33:46.565Z,101182.81
2018-12-27T00:36:26.568Z,101179.19
2018-12-27T00:39:07.657Z,101177.30
2018-12-27T00:41:48.239Z,101176.85
2018-12-27T00:44:28.654Z,101184.81
2018-12-27T00:47:09.532Z,101192.14
2018-12-27T00:49:50.649Z,101194.05
2018-12-27T00:52:31.809Z,101200.28
2018-12-27T00:55:13.297Z,101202.34
2018-12-27T00:57:54.255Z,101213.33
2018-12-27T01:00:34.500Z,101216.95
2018-12-27T01:03:15.554Z,101217.90
2018-12-27T01:05:56.074Z,101224.68
2018-12-27T01:08:36.905Z,101232.78
2018-12-27T01:11:18.115Z,101225.14
2018-12-27T01:13:59.036Z,101227.38
2018-12-27T01:16:40.255Z,101242.27
2018-12-27T01:19:20.927Z,101246.81
2018-12-27T01:22:01.659Z,101251.05
2018-12-27T01:24:42.921Z,101254.63
2018-12-27T01:27:23.522Z,101261.57
2018-12-27T01:30:04.790Z,101260.55
2018-12-27T01:32:45.765Z,101266.17
2018-12-27T01:35:26.860Z,101280.28
2018-12-27T01:38:07.962Z,101293.31
2018-12-27T01:40:48.974Z,101307.45
2018-12-27T01:43:29.698Z,101304.94
2018-12-27T01:46:10.894Z,101308.49
2018-12-27T01:48:52.167Z,101321.03
2018-12-27T01:51:33.492Z,101329.20
2018-12-27T01:54:14.576Z,101318.66
2018-12-27T01:56:55.700Z,101329.28
2018-12-27T01:59:36.811Z,101326.53
2018-12-27T02:02:17.697Z,101325.77
2018-12-27T02:04:58.693Z,101338.00
2018-12-27T02:07:39.887Z,101334.30
2018-12-27T02:10:20.957Z,101327.53
2018-12-27T02:13:02.231Z,101339.08
2018-12-27T02:15:43.393Z,101341.05
2018-12-27T02:18:25.000Z,101343.80
2018-12-27T02:21:06.096Z,101351.86
2018-12-27T02:23:46.652Z,101361.89
2018-12-27T02:26:27.352Z,101350.74
2018-12-27T02:29:08.162Z,101370.11
2018-12-27T02:31:49.171Z,101374.86
2018-12-27T02:34:29.494Z,101391.27
2018-12-27T02:37:10.727Z,101391.32
2018-12-27T02:39:51.699Z,101397.15
2018-12-27T02:42:32.097Z,101396.70
2018-12-27T02:45:12.202Z,101399.77
2018-12-27T02:47:52.493Z,101403.64
2018-12-27T02:50:33.100Z,101409.52
2018-12-27T02:53:13.535Z,101410.70
2018-12-27T02:55:54.220Z,101422.19
2018-12-27T02:58:34.877Z,101425.81
2018-12-27T03:01:15.864Z,101417.00
2018-12-27T03:03:56.640Z,101424.80
2018-12-27T03:06:38.099Z,101428.12
2018-12-27T03:09:18.771Z,101422.77
2018-12-27T03:12:00.012Z,101439.31
2018-12-27T03:14:41.042Z,101430.80
2018-12-27T03:17:21.616Z,101433.39
2018-12-27T03:20:02.579Z,101441.70
2018-12-27T03:22:43.016Z,101442.36
2018-12-27T03:25:24.166Z,101446.42
2018-12-27T03:28:05.178Z,101442.36
2018-12-27T03:30:46.420Z,101441.31
2018-12-27T03:33:27.442Z,101438.80
2018-12-27T03:36:08.095Z,101436.52
2018-12-27T03:38:49.094Z,101440.20
2018-12-27T03:41:31.261Z,101441.27
2018-12-27T03:44:11.732Z,101432.27
2018-12-27T03:46:52.810Z,101427.11
2018-12-27T03:49:33.797Z,101430.89
2018-12-27T03:52:14.849Z,101424.38
2018-12-27T03:54:55.915Z,101424.18
2018-12-27T03:57:37.305Z,101427.55
2018-12-27T04:00:18.280Z,101422.02
2018-12-27T04:02:59.164Z,101412.64
2018-12-27T04:05:40.370Z,101404.08
2018-12-27T04:08:21.562Z,101402.94
2018-12-27T04:11:02.133Z,101404.64
2018-12-27T04:13:43.137Z,101388.38
2018-12-27T04:16:24.322Z,101396.46
2018-12-27T04:19:05.370Z,101392.39
2018-12-27T04:21:46.395Z,101379.09
2018-12-27T04:24:27.152Z,101385.34
2018-12-27T04:27:08.175Z,101375.31
2018-12-27T04:29:49.195Z,101378.19
2018-12-27T04:32:30.086Z,101378.47
2018-12-27T04:35:10.845Z,101386.56
2018-12-27T04:37:52.324Z,101377.58
2018-12-27T04:40:33.289Z,101378.97
2018-12-27T04:43:14.381Z,101371.44
2018-12-27T04:45:55.343Z,101362.36
2018-12-27T04:48:36.219Z,101361.03
2018-12-27T04:51:17.257Z,101350.30
2018-12-27T04:53:57.964Z,101338.60
2018-12-27T04:56:38.859Z,101346.51
2018-12-27T04:59:19.295Z,101347.86
2018-12-27T05:02:00.383Z,101342.05
2018-12-27T05:04:41.020Z,101340.12
2018-12-27T05:07:22.247Z,101333.45
2018-12-27T05:10:02.702Z,101333.02
2018-12-27T05:12:43.658Z,101331.89
2018-12-27T05:15:24.219Z,101326.50
2018-12-27T05:18:04.499Z,101319.05
2018-12-27T05:20:45.545Z,101315.22
2018-12-27T05:23:26.404Z,101312.09
2018-12-27T05:26:07.183Z,101310.71
2018-12-27T05:28:47.167Z,101306.95
2018-12-27T05:31:27.118Z,101305.29
2018-12-27T05:34:08.051Z,101292.14
2018-12-27T05:36:48.198Z,101285.75
2018-12-27T05:39:29.282Z,101285.98
2018-12-27T05:42:09.846Z,101281.08
2018-12-27T05:44:50.009Z,101277.33
2018-12-27T05:47:30.672Z,101267.97
2018-12-27T05:50:11.610Z,101266.12
2018-12-27T05:52:52.246Z,101256.17
2018-12-27T05:55:34.504Z,101261.36
2018-12-27T05:58:13.819Z,101255.14
2018-12-27T06:00:54.206Z,101252.53
2018-12-27T06:03:34.279Z,101251.37
2018-12-27T06:06:15.129Z,101245.35
2018-12-27T06:08:55.329Z,101241.05
2018-12-27T06:11:35.881Z,101246.05
2018-12-27T06:14:16.285Z,101226.88
2018-12-27T06:16:57.060Z,101229.39
2018-12-27T06:19:37.244Z,101226.70
2018-12-27T06:25:01.331Z,101208.58
2018-12-27T06:27:41.779Z,101209.56
2018-12-27T06:30:22.462Z,101206.75
2018-12-27T06:33:02.795Z,101199.59
2018-12-27T06:35:43.274Z,101195.71
2018-12-27T06:38:23.472Z,101181.38
2018-12-27T06:41:03.778Z,101173.74
2018-12-27T06:43:43.966Z,101175.12
2018-12-27T06:46:24.051Z,101162.81
2018-12-27T06:49:04.454Z,101158.09
2018-12-27T06:51:44.635Z,101160.25
2018-12-27T06:54:26.366Z,101142.42
2018-12-27T06:57:06.661Z,101136.73
2018-12-27T06:59:47.034Z,101132.63
2018-12-27T07:02:28.517Z,101126.41
2018-12-27T07:05:08.364Z,101125.00
2018-12-27T07:07:48.917Z,101115.74
2018-12-27T07:10:29.441Z,101110.19
2018-12-27T07:13:09.775Z,101105.27
2018-12-27T07:15:50.204Z,101095.55
2018-12-27T07:18:31.083Z,101097.45
2018-12-27T07:21:11.332Z,101097.45
2018-12-27T07:23:52.721Z,101096.92
2018-12-27T07:26:33.890Z,101090.19
2018-12-27T07:29:16.737Z,101087.27
2018-12-27T07:31:59.618Z,101079.67
2018-12-27T07:34:40.328Z,101074.13
2018-12-27T07:37:20.327Z,101069.69
2018-12-27T07:40:01.033Z,101064.74
2018-12-27T07:42:42.165Z,101074.06
2018-12-27T07:45:22.650Z,101070.76
2018-12-27T07:48:02.870Z,101060.16
2018-12-27T07:50:42.858Z,101055.24
2018-12-27T07:53:23.420Z,101065.62
2018-12-27T07:56:04.096Z,101060.12
2018-12-27T07:58:44.532Z,101063.11
2018-12-27T08:01:25.003Z,101061.95
2018-12-27T08:04:05.566Z,101059.48
2018-12-27T08:06:46.526Z,101054.53
2018-12-27T08:09:26.617Z,101047.95
2018-12-27T08:12:07.175Z,101052.62
2018-12-27T08:14:47.931Z,101046.05
2018-12-27T08:17:28.790Z,101046.47
2018-12-27T08:20:09.843Z,101048.08
2018-12-27T08:22:50.254Z,101044.64
2018-12-27T08:25:30.824Z,101047.55
2018-12-27T08:28:11.172Z,101045.39
2018-12-27T08:30:52.259Z,101038.75
2018-12-27T08:33:32.596Z,101037.09
2018-12-27T08:36:12.956Z,101041.02
2018-12-27T08:38:53.414Z,101039.44
2018-12-27T08:41:34.703Z,101032.66
2018-12-27T08:44:15.067Z,101021.67
2018-12-27T08:46:56.573Z,101024.02
2018-12-27T08:49:37.363Z,101017.55
2018-12-27T08:52:17.432Z,101017.41
2018-12-27T08:54:57.936Z,101016.72
2018-12-27T08:57:38.317Z,101016.39
2018-12-27T09:00:18.922Z,101013.27
2018-12-27T09:02:59.839Z,101009.45
2018-12-27T09:05:40.170Z,101011.73
2018-12-27T09:08:21.623Z,101014.38
2018-12-27T09:11:03.149Z,101017.50
2018-12-27T09:13:43.613Z,101018.92
2018-12-27T09:16:23.968Z,101013.80
2018-12-27T09:19:04.840Z,101008.57
2018-12-27T09:21:45.196Z,101010.34
2018-12-27T09:24:28.430Z,101002.85
2018-12-27T09:27:09.203Z,101002.81
2018-12-27T09:29:49.456Z,100998.89
2018-12-27T09:32:29.927Z,100996.45
2018-12-27T09:35:10.249Z,100994.42
2018-12-27T09:37:50.850Z,100985.48
2018-12-27T09:40:31.209Z,100987.89
2018-12-27T09:43:11.689Z,100985.30
2018-12-27T09:45:52.333Z,100991.27
2018-12-27T09:48:32.773Z,100991.83
2018-12-27T09:51:13.260Z,100985.98
2018-12-27T09:53:53.819Z,100988.83
2018-12-27T09:56:34.614Z,100994.29
2018-12-27T09:59:15.535Z,100996.27
2018-12-27T10:01:56.530Z,100996.89
2018-12-27T10:04:37.523Z,100988.19
2018-12-27T10:07:17.761Z,100986.86
2018-12-27T10:09:58.326Z,100990.91
2018-12-27T10:12:38.986Z,100989.15
2018-12-27T10:15:19.363Z,100989.05
2018-12-27T10:18:00.050Z,100985.92
2018-12-27T10:20:42.639Z,100983.58
2018-12-27T10:23:25.352Z,100983.08
2018-12-27T10:26:06.027Z,100995.00
2018-12-27T10:28:46.783Z,100985.68
2018-12-27T10:31:27.032Z,100991.59
2018-12-27T10:34:07.283Z,100994.56
2018-12-27T10:36:47.777Z,100995.52
2018-12-27T10:39:28.104Z,100996.45
2018-12-27T10:42:08.827Z,100998.78
2018-12-27T10:44:49.342Z,101000.84
2018-12-27T10:47:29.775Z,101000.61
2018-12-27T10:50:10.032Z,100995.20
2018-12-27T10:52:50.654Z,101003.53
2018-12-27T10:55:31.204Z,101001.77
2018-12-27T10:58:12.057Z,100999.30
2018-12-27T11:00:52.619Z,100999.34
2018-12-27T11:03:34.304Z,101007.25
2018-12-27T11:06:14.631Z,101005.38
2018-12-27T11:08:55.286Z,101001.53
2018-12-27T11:11:35.725Z,101002.98
2018-12-27T11:14:16.157Z,100998.89
2018-12-27T11:16:56.966Z,101005.72
2018-12-27T11:19:37.409Z,101007.02
2018-12-27T11:22:17.999Z,101010.80
2018-12-27T11:24:58.316Z,101008.44
2018-12-27T11:27:38.975Z,101010.96
2018-12-27T11:30:19.208Z,101015.11
2018-12-27T11:32:59.778Z,101013.55
2018-12-27T11:35:40.125Z,101015.06
2018-12-27T11:38:20.253Z,101009.33
2018-12-27T11:41:00.967Z,101010.28
2018-12-27T11:43:41.544Z,101014.89
2018-12-27T11:46:22.232Z,101015.78
2018-12-27T11:49:03.102Z,101018.23
2018-12-27T11:51:43.700Z,101014.70
2018-12-27T11:54:24.234Z,101019.75
2018-12-27T11:57:04.803Z,101017.56
2018-12-27T11:59:45.226Z,101010.17
2018-12-27T12:02:31.073Z,101017.45
2018-12-27T12:05:05.812Z,101017.39
2018-12-27T12:07:46.342Z,101025.64
2018-12-27T12:10:26.646Z,101027.68
2018-12-27T12:13:07.122Z,101022.83
2018-12-27T12:15:47.516Z,101022.94
2018-12-27T12:18:27.657Z,101024.52
2018-12-27T12:21:08.614Z,101025.73
2018-12-27T12:23:49.114Z,101030.25
2018-12-27T12:26:29.580Z,101034.07
2018-12-27T12:29:10.205Z,101026.66
2018-12-27T12:31:50.564Z,101033.69
2018-12-27T12:34:30.717Z,101030.95
2018-12-27T12:37:13.930Z,101032.38
2018-12-27T12:39:52.260Z,101034.97
2018-12-27T12:42:33.236Z,101035.16
2018-12-27T12:45:14.017Z,101032.12
2018-12-27T12:47:54.377Z,101031.49
2018-12-27T12:50:34.852Z,101029.44
2018-12-27T12:53:15.699Z,101026.67
2018-12-27T12:55:56.176Z,101026.28
2018-12-27T12:58:36.531Z,101029.72
2018-12-27T13:01:16.974Z,101038.83
2018-12-27T13:03:57.362Z,101039.03
2018-12-27T13:06:40.755Z,101039.59
2018-12-27T13:09:23.125Z,101048.50
2018-12-27T13:12:03.676Z,101044.28
2018-12-27T13:14:43.973Z,101046.86
2018-12-27T13:17:24.674Z,101054.07
2018-12-27T13:20:05.257Z,101056.95
2018-12-27T13:22:45.605Z,101054.20
2018-12-27T13:25:26.178Z,101057.13
2018-12-27T13:28:06.853Z,101056.12
2018-12-27T13:30:47.521Z,101056.54
2018-12-27T13:33:28.169Z,101049.88
2018-12-27T13:36:08.734Z,101052.24
2018-12-27T13:38:49.509Z,101047.78
2018-12-27T13:41:30.184Z,101046.78
2018-12-27T13:44:10.532Z,101048.44
2018-12-27T13:46:57.577Z,101047.54
2018-12-27T13:49:38.112Z,101041.65
2018-12-27T13:52:20.115Z,101046.28
2018-12-27T13:55:00.761Z,101054.69
2018-12-27T13:57:41.815Z,101056.98
2018-12-27T14:00:22.887Z,101055.86
2018-12-27T14:03:11.304Z,101056.33
2018-12-27T14:05:52.971Z,101056.39
2018-12-27T14:08:33.249Z,101052.41
2018-12-27T14:11:14.064Z,101050.56
2018-12-27T14:13:53.970Z,101059.31
2018-12-27T14:16:36.656Z,101062.38
2018-12-27T14:19:16.483Z,101056.64
2018-12-27T14:21:56.666Z,101068.94
2018-12-27T14:24:36.809Z,101062.39
2018-12-27T14:27:17.130Z,101061.59
2018-12-27T14:29:57.173Z,101066.90
2018-12-27T14:32:37.601Z,101069.36
2018-12-27T14:35:25.971Z,101076.84
2018-12-27T14:38:07.272Z,101080.72
2018-12-27T14:40:47.461Z,101082.25
2018-12-27T14:43:27.924Z,101088.25
2018-12-27T14:46:07.868Z,101081.70
2018-12-27T14:48:47.939Z,101089.76
2018-12-27T14:51:27.953Z,101087.78
2018-12-27T14:54:08.257Z,101089.45
2018-12-27T14:56:48.375Z,101087.60
2018-12-27T14:59:28.441Z,101086.47
2018-12-27T15:02:08.596Z,101085.07
2018-12-27T15:04:48.643Z,101084.92
2018-12-27T15:07:29.227Z,101090.61
2018-12-27T15:10:09.502Z,101090.29
2018-12-27T15:12:49.596Z,101091.44
2018-12-27T15:15:30.249Z,101092.44
2018-12-27T15:18:10.291Z,101091.81
2018-12-27T15:20:50.545Z,101093.23
2018-12-27T15:23:31.241Z,101099.36
2018-12-27T15:26:11.282Z,101095.92
2018-12-27T15:28:54.572Z,101100.05
2018-12-27T15:31:35.204Z,101092.84
2018-12-27T15:34:15.246Z,101093.05
2018-12-27T15:36:55.723Z,101101.06
2018-12-27T15:39:35.972Z,101098.08
2018-12-27T15:42:15.961Z,101103.98
2018-12-27T15:44:56.079Z,101098.92
2018-12-27T15:47:36.346Z,101104.71
2018-12-27T15:50:16.744Z,101105.45
2018-12-27T15:52:57.149Z,101105.82
2018-12-27T15:55:37.108Z,101112.82
2018-12-27T15:58:17.654Z,101104.78
2018-12-27T16:00:58.015Z,101101.63
2018-12-27T16:03:38.359Z,101099.19
2018-12-27T16:06:18.935Z,101105.25
2018-12-27T16:08:59.104Z,101105.34
2018-12-27T16:11:39.988Z,101108.33
2018-12-27T16:14:21.137Z,101101.70
2018-12-27T16:17:03.935Z,101105.62
2018-12-27T16:19:44.314Z,101102.73
2018-12-27T16:22:25.403Z,101113.14
2018-12-27T16:25:06.417Z,101100.08
2018-12-27T16:27:47.334Z,101100.32
2018-12-27T16:30:27.369Z,101098.81
2018-12-27T16:33:08.305Z,101105.91
2018-12-27T16:35:48.784Z,101107.28
2018-12-27T16:38:29.710Z,101108.77
2018-12-27T16:41:10.723Z,101114.30
2018-12-27T16:43:51.683Z,101116.91
2018-12-27T16:46:32.329Z,101104.04
2018-12-27T16:49:12.962Z,101103.96
2018-12-27T16:51:54.056Z,101104.57
2018-12-27T16:54:34.609Z,101103.48
2018-12-27T16:57:19.698Z,101109.87
2018-12-27T16:59:57.134Z,101112.61
2018-12-27T17:02:38.943Z,101119.55
2018-12-27T17:05:19.561Z,101118.16
2018-12-27T17:08:00.808Z,101106.31
2018-12-27T17:10:42.318Z,101102.08
2018-12-27T17:13:22.954Z,101102.41
2018-12-27T17:16:03.846Z,101107.05
2018-12-27T17:18:44.899Z,101109.61
2018-12-27T17:21:25.581Z,101108.41
2018-12-27T17:24:06.416Z,101112.56
2018-12-27T17:26:47.532Z,101101.51
2018-12-27T17:29:28.052Z,101104.12
2018-12-27T17:32:09.116Z,101096.69
2018-12-27T17:34:49.454Z,101096.91
2018-12-27T17:37:29.902Z,101103.59
2018-12-27T17:40:09.764Z,101095.39
2018-12-27T17:42:50.600Z,101094.33
2018-12-27T17:45:31.537Z,101094.23
2018-12-27T17:48:12.644Z,101089.36
2018-12-27T17:50:53.773Z,101088.49
2018-12-27T17:53:34.394Z,101096.41
2018-12-27T17:56:14.862Z,101091.75
2018-12-27T17:58:56.016Z,101088.06
2018-12-27T18:01:37.012Z,101081.81
2018-12-27T18:04:17.319Z,101075.52
2018-12-27T18:06:58.022Z,101074.95
2018-12-27T18:09:39.054Z,101083.31
2018-12-27T18:12:19.337Z,101078.53
2018-12-27T18:15:05.575Z,101078.18
2018-12-27T18:17:47.929Z,101075.02
2018-12-27T18:20:35.286Z,101073.03
2018-12-27T18:23:19.528Z,101066.63
2018-12-27T18:26:07.621Z,101078.16
2018-12-27T18:28:50.013Z,101085.67
2018-12-27T18:31:30.651Z,101082.94
2018-12-27T18:34:11.124Z,101074.58
2018-12-27T18:36:51.478Z,101069.98
2018-12-27T18:39:31.782Z,101074.64
2018-12-27T18:42:13.008Z,101076.78
2018-12-27T18:44:53.576Z,101074.33
2018-12-27T18:47:38.758Z,101075.97
2018-12-27T18:50:25.911Z,101077.64
2018-12-27T18:53:15.498Z,101081.92
2018-12-27T18:56:05.169Z,101075.82
2018-12-27T18:58:50.772Z,101076.45
2018-12-27T19:01:39.498Z,101079.67
2018-12-27T19:04:29.456Z,101078.11
2018-12-27T19:07:16.817Z,101081.92
2018-12-27T19:10:02.969Z,101076.66
2018-12-27T19:12:48.333Z,101072.05
2018-12-27T19:15:36.003Z,101082.34
2018-12-27T19:18:19.534Z,101075.41
2018-12-27T19:21:05.536Z,101076.08
2018-12-27T19:26:35.176Z,101074.67
2018-12-27T19:29:21.294Z,101070.15
2018-12-27T19:32:06.412Z,101075.33
2018-12-27T19:34:48.055Z,101075.27
2018-12-27T19:37:31.658Z,101078.25
2018-12-27T19:40:14.718Z,101072.64
2018-12-27T19:42:56.365Z,101064.55
2018-12-27T19:45:37.192Z,101063.67
2018-12-27T19:48:20.863Z,101065.23
2018-12-27T19:51:02.727Z,101067.16
2018-12-27T19:53:45.433Z,101056.91
2018-12-27T19:56:29.680Z,101057.24
2018-12-27T19:59:11.530Z,101054.73
2018-12-27T20:01:54.376Z,101061.16
2018-12-27T20:04:35.568Z,101067.80
2018-12-27T20:07:16.928Z,101064.95
2018-12-27T20:09:57.175Z,101065.13
2018-12-27T20:12:37.660Z,101063.94
2018-12-27T20:15:18.230Z,101062.22
2018-12-27T20:17:58.460Z,101062.77
2018-12-27T20:20:38.842Z,101058.41
2018-12-27T20:23:18.980Z,101064.27
2018-12-27T20:26:00.450Z,101051.70
2018-12-27T20:28:40.751Z,101056.59
2018-12-27T20:31:21.086Z,101057.44
2018-12-27T20:34:00.967Z,101070.79
2018-12-27T20:36:41.404Z,101064.04
2018-12-27T20:39:21.658Z,101062.96
2018-12-27T20:42:01.719Z,101054.35
2018-12-27T20:44:41.645Z,101048.13
2018-12-27T20:47:22.212Z,101052.31
2018-12-27T20:50:02.582Z,101061.88
2018-12-27T20:52:42.841Z,101055.92
2018-12-27T20:55:23.102Z,101061.51
2018-12-27T20:58:03.143Z,101057.42
2018-12-27T21:00:43.528Z,101053.64
2018-12-27T21:03:24.578Z,101054.63
2018-12-27T21:06:04.938Z,101051.27
2018-12-27T21:08:44.844Z,101052.97
2018-12-27T21:11:25.055Z,101058.36
2018-12-27T21:14:05.247Z,101059.17
2018-12-27T21:16:45.559Z,101056.73
2018-12-27T21:19:25.837Z,101039.28
2018-12-27T21:22:05.978Z,101041.94
2018-12-27T21:24:46.859Z,101043.80
2018-12-27T21:27:27.297Z,101052.91
2018-12-27T21:30:07.992Z,101059.35
2018-12-27T21:32:47.980Z,101060.52
2018-12-27T21:35:28.447Z,101058.89
2018-12-27T21:38:08.158Z,101064.59
2018-12-27T21:40:48.800Z,101057.95
2018-12-27T21:43:29.353Z,101064.08
2018-12-27T21:46:09.517Z,101068.53
2018-12-27T21:48:49.557Z,101079.42
2018-12-27T21:51:30.766Z,101083.23
2018-12-27T21:54:11.410Z,101075.41
2018-12-27T21:56:52.497Z,101081.16
2018-12-27T21:59:33.007Z,101085.64
2018-12-27T22:02:13.001Z,101089.02
2018-12-27T22:04:53.450Z,101094.40
2018-12-27T22:07:33.881Z,101094.02
2018-12-27T22:10:14.683Z,101097.84
2018-12-27T22:12:54.748Z,101099.38
2018-12-27T22:15:34.921Z,101101.27
2018-12-27T22:18:15.751Z,101099.67
2018-12-27T22:20:55.856Z,101095.48
2018-12-27T22:23:35.745Z,101110.88
2018-12-27T22:26:16.366Z,101113.02
2018-12-27T22:28:56.686Z,101117.23
2018-12-27T22:31:37.363Z,101118.06
2018-12-27T22:34:17.413Z,101107.13
2018-12-27T22:36:58.033Z,101114.02
2018-12-27T22:39:38.636Z,101113.38
2018-12-27T22:42:18.977Z,101116.53
2018-12-27T22:44:59.318Z,101123.26
2018-12-27T22:47:39.519Z,101128.39
2018-12-27T22:50:20.221Z,101125.79
2018-12-27T22:53:00.299Z,101130.41
2018-12-27T22:55:40.682Z,101124.89
2018-12-27T22:58:21.337Z,101130.77
2018-12-27T23:01:01.723Z,101145.69
2018-12-27T23:03:42.163Z,101155.13
2018-12-27T23:06:22.729Z,101150.26
2018-12-27T23:09:02.922Z,101145.30
2018-12-27T23:11:43.683Z,101161.38
2018-12-27T23:14:24.009Z,101168.58
2018-12-27T23:17:04.422Z,101170.04
2018-12-27T23:19:44.460Z,101169.44
2018-12-27T23:22:24.535Z,101161.05
2018-12-27T23:25:04.536Z,101162.73
2018-12-27T23:27:45.605Z,101163.94
2018-12-27T23:30:25.698Z,101172.87
2018-12-27T23:33:06.312Z,101177.19
2018-12-27T23:35:46.454Z,101178.95
2018-12-27T23:38:26.374Z,101171.47
2018-12-27T23:41:06.532Z,101179.06
2018-12-27T23:43:47.445Z,101176.59
2018-12-27T23:46:27.489Z,101180.75
2018-12-27T23:49:07.554Z,101177.43
2018-12-27T23:51:48.128Z,101182.05
2018-12-27T23:54:28.899Z,101185.05
2018-12-27T23:57:09.782Z,101192.91
2018-12-27T23:59:49.997Z,101202.59
